createdAt,value
2023-01-19T00:03:07.426Z,97130.72
2023-01-19T00:08:32.456Z,97131.09
2023-01-19T00:14:00.311Z,97136.75
2023-01-19T00:19:25.472Z,97130.16
2023-01-19T00:24:51.339Z,97136.28
2023-01-19T00:30:21.356Z,97149.41
2023-01-19T00:35:52.337Z,97144.44
2023-01-19T00:41:17.348Z,97142.94
2023-01-19T00:46:44.669Z,97158.03
2023-01-19T00:52:09.319Z,97147.81
2023-01-19T00:57:34.357Z,97139.47
2023-01-19T01:03:09.437Z,97145.22
2023-01-19T01:08:34.362Z,97147.19
2023-01-19T01:13:59.316Z,97143.94
2023-01-19T01:19:27.360Z,97157.31
2023-01-19T01:24:52.328Z,97161.25
2023-01-19T01:30:20.363Z,97162.75
2023-01-19T01:35:55.365Z,97152.66
2023-01-19T01:41:21.171Z,97150.13
2023-01-19T01:46:49.377Z,97153.03
2023-01-19T01:52:17.334Z,97152.38
2023-01-19T01:57:42.342Z,97155.28
2023-01-19T02:03:07.637Z,97158.25
2023-01-19T02:08:53.347Z,97164.53
2023-01-19T02:14:18.357Z,97158.53
2023-01-19T02:19:48.524Z,97157.00
2023-01-19T02:25:17.421Z,97153.72
2023-01-19T02:30:43.423Z,97148.59
2023-01-19T02:36:17.499Z,97146.97
2023-01-19T02:41:49.384Z,97149.78
2023-01-19T02:47:13.389Z,97143.22
2023-01-19T02:52:39.387Z,97134.63
2023-01-19T02:58:15.371Z,97137.25
2023-01-19T03:03:53.372Z,97137.59
2023-01-19T03:09:24.350Z,97147.41
2023-01-19T03:15:03.360Z,97144.13
2023-01-19T03:20:35.386Z,97146.06
2023-01-19T03:26:04.368Z,97152.34
2023-01-19T03:31:35.400Z,97152.69
2023-01-19T03:37:09.372Z,97143.16
2023-01-19T03:42:36.375Z,97149.16
2023-01-19T03:48:04.410Z,97155.13
2023-01-19T03:53:31.403Z,97156.38
2023-01-19T03:58:56.356Z,97166.59
2023-01-19T04:04:24.417Z,97167.84
2023-01-19T04:09:50.490Z,97164.75
2023-01-19T04:15:17.392Z,97166.66
2023-01-19T04:20:45.400Z,97165.34
2023-01-19T04:26:13.484Z,97169.22
2023-01-19T04:31:38.440Z,97173.91
2023-01-19T04:37:06.400Z,97176.38
2023-01-19T04:42:31.398Z,97165.03
2023-01-19T04:47:56.525Z,97166.91
2023-01-19T04:53:25.422Z,97165.13
2023-01-19T04:58:50.387Z,97166.84
2023-01-19T05:04:15.438Z,97175.84
2023-01-19T05:09:43.519Z,97179.94
2023-01-19T05:15:08.415Z,97175.28
2023-01-19T05:20:34.481Z,97178.66
2023-01-19T05:26:03.433Z,97178.19
2023-01-19T05:31:28.547Z,97192.59
2023-01-19T05:36:52.605Z,97192.16
2023-01-19T05:42:20.442Z,97195.03
2023-01-19T05:47:46.415Z,97191.00
2023-01-19T05:53:12.431Z,97190.53
2023-01-19T05:58:41.457Z,97193.34
2023-01-19T06:04:06.421Z,97206.47
2023-01-19T06:09:31.443Z,97213.59
2023-01-19T06:14:59.455Z,97212.00
2023-01-19T06:20:25.421Z,97215.28
2023-01-19T06:25:50.443Z,97208.34
2023-01-19T06:31:17.717Z,97210.19
2023-01-19T06:36:42.442Z,97213.75
2023-01-19T06:42:08.453Z,97210.03
2023-01-19T06:47:36.539Z,97221.09
2023-01-19T06:53:00.763Z,97217.44
2023-01-19T06:58:25.442Z,97224.78
2023-01-19T07:03:52.453Z,97225.88
2023-01-19T07:09:19.462Z,97231.50
2023-01-19T07:14:43.525Z,97244.31
2023-01-19T07:20:11.466Z,97240.59
2023-01-19T07:25:35.451Z,97252.19
2023-01-19T07:31:01.504Z,97246.94
2023-01-19T07:36:28.456Z,97250.16
2023-01-19T07:41:53.445Z,97256.22
2023-01-19T07:47:19.498Z,97262.13
2023-01-19T07:52:47.458Z,97267.38
2023-01-19T07:58:13.454Z,97269.09
2023-01-19T08:03:38.458Z,97279.91
2023-01-19T08:09:05.468Z,97280.38
2023-01-19T08:14:30.471Z,97289.22
2023-01-19T08:19:56.487Z,97286.69
2023-01-19T08:25:24.477Z,97297.69
2023-01-19T08:30:50.558Z,97291.03
2023-01-19T08:36:16.448Z,97293.09
2023-01-19T08:41:43.479Z,97301.28
2023-01-19T08:47:09.673Z,97301.63
2023-01-19T08:52:35.491Z,97305.38
2023-01-19T08:58:10.588Z,97320.38
2023-01-19T09:03:35.515Z,97317.75
2023-01-19T09:09:00.464Z,97313.19
2023-01-19T09:14:28.458Z,97313.81
2023-01-19T09:19:53.505Z,97327.78
2023-01-19T09:25:19.497Z,97329.22
2023-01-19T09:30:46.506Z,97331.69
2023-01-19T09:36:11.516Z,97319.72
2023-01-19T09:41:37.478Z,97326.47
2023-01-19T09:47:05.489Z,97323.97
2023-01-19T09:52:31.515Z,97327.25
2023-01-19T09:58:04.053Z,97330.59
2023-01-19T10:03:33.848Z,97327.66
2023-01-19T10:09:11.699Z,97310.44
2023-01-19T10:14:46.512Z,97312.41
2023-01-19T10:20:18.496Z,97306.72
2023-01-19T10:25:44.702Z,97301.41
2023-01-19T10:31:12.579Z,97288.06
2023-01-19T10:36:46.530Z,97295.06
2023-01-19T10:42:20.532Z,97287.56
2023-01-19T10:47:48.515Z,97286.88
2023-01-19T10:53:17.555Z,97273.84
2023-01-19T10:58:46.492Z,97274.22
2023-01-19T11:04:12.529Z,97266.44
2023-01-19T11:09:40.529Z,97260.22
2023-01-19T11:15:07.603Z,97255.91
2023-01-19T11:20:35.541Z,97244.63
2023-01-19T11:26:07.569Z,97244.41
2023-01-19T11:31:42.534Z,97236.00
2023-01-19T11:37:12.563Z,97228.56
2023-01-19T11:42:43.538Z,97228.56
2023-01-19T11:48:07.633Z,97229.88
2023-01-19T11:53:36.448Z,97224.72
2023-01-19T11:59:05.018Z,97230.00
2023-01-19T12:04:35.542Z,97240.09
2023-01-19T12:10:01.611Z,97230.94
2023-01-19T12:15:36.995Z,97226.88
2023-01-19T12:21:05.649Z,97227.53
2023-01-19T12:26:47.564Z,97229.91
2023-01-19T12:32:49.551Z,97220.63
2023-01-19T12:38:33.566Z,97211.69
2023-01-19T12:43:58.990Z,97215.50
2023-01-19T12:49:33.552Z,97222.34
2023-01-19T12:55:06.661Z,97222.88
2023-01-19T13:00:43.645Z,97211.69
2023-01-19T13:06:11.597Z,97203.03
2023-01-19T13:11:37.588Z,97217.72
2023-01-19T13:17:12.595Z,97228.75
2023-01-19T13:23:21.579Z,97227.00
2023-01-19T13:28:55.586Z,97218.78
2023-01-19T13:34:24.904Z,97233.13
2023-01-19T13:39:57.812Z,97236.75
2023-01-19T13:45:33.604Z,97239.78
2023-01-19T13:50:57.610Z,97253.41
2023-01-19T13:56:32.606Z,97246.22
2023-01-19T14:02:00.754Z,97254.16
2023-01-19T14:07:32.679Z,97250.47
2023-01-19T14:13:00.214Z,97249.50
2023-01-19T14:18:34.616Z,97249.88
2023-01-19T14:24:03.587Z,97256.00
2023-01-19T14:29:34.616Z,97254.81
2023-01-19T14:35:01.913Z,97255.91
2023-01-19T14:40:31.270Z,97262.41
2023-01-19T14:46:02.609Z,97257.00
2023-01-19T14:51:31.615Z,97256.78
2023-01-19T14:56:55.611Z,97266.19
2023-01-19T15:02:29.998Z,97266.56
2023-01-19T15:07:56.674Z,97275.94
2023-01-19T15:13:22.385Z,97273.53
2023-01-19T15:18:50.958Z,97270.19
2023-01-19T15:24:16.352Z,97269.69
2023-01-19T15:29:45.189Z,97280.28
2023-01-19T15:35:14.218Z,97295.66
2023-01-19T15:40:39.764Z,97315.25
2023-01-19T15:46:07.835Z,97322.38
2023-01-19T15:51:36.794Z,97316.94
2023-01-19T15:57:03.486Z,97324.88
2023-01-19T16:02:34.628Z,97334.63
2023-01-19T16:08:03.617Z,97330.16
2023-01-19T16:13:28.656Z,97347.72
2023-01-19T16:18:53.679Z,97348.47
2023-01-19T16:24:20.629Z,97355.53
2023-01-19T16:29:45.658Z,97355.53
2023-01-19T16:35:09.649Z,97358.19
2023-01-19T16:40:38.660Z,97357.47
2023-01-19T16:46:13.674Z,97361.91
2023-01-19T16:51:40.948Z,97361.09
2023-01-19T16:57:08.668Z,97376.22
2023-01-19T17:02:33.700Z,97381.53
2023-01-19T17:07:57.659Z,97379.97
2023-01-19T17:13:25.671Z,97386.09
2023-01-19T17:18:51.657Z,97391.38
2023-01-19T17:24:17.765Z,97390.53
2023-01-19T17:29:44.663Z,97398.22
2023-01-19T17:35:10.649Z,97404.25
2023-01-19T17:40:36.148Z,97406.75
2023-01-19T17:46:03.678Z,97416.28
2023-01-19T17:51:29.683Z,97432.16
2023-01-19T17:56:54.693Z,97442.38
2023-01-19T18:02:21.685Z,97453.88
2023-01-19T18:07:53.673Z,97464.88
2023-01-19T18:13:18.675Z,97483.75
2023-01-19T18:18:46.778Z,97485.78
2023-01-19T18:24:14.701Z,97486.72
2023-01-19T18:29:38.806Z,97497.44
2023-01-19T18:35:06.670Z,97495.41
2023-01-19T18:40:31.653Z,97508.50
2023-01-19T18:45:56.736Z,97519.06
2023-01-19T18:51:25.694Z,97526.78
2023-01-19T18:56:50.722Z,97524.03
2023-01-19T19:02:15.733Z,97536.28
2023-01-19T19:07:49.679Z,97537.25
2023-01-19T19:13:14.715Z,97534.84
2023-01-19T19:18:39.680Z,97531.47
2023-01-19T19:24:07.765Z,97543.72
2023-01-19T19:29:31.723Z,97542.88
2023-01-19T19:34:59.745Z,97549.97
2023-01-19T19:40:27.747Z,97557.06
2023-01-19T19:45:52.692Z,97564.03
2023-01-19T19:51:21.728Z,97563.81
2023-01-19T19:56:49.797Z,97571.00
2023-01-19T20:02:13.724Z,97584.34
2023-01-19T20:07:45.743Z,97585.31
2023-01-19T20:13:14.720Z,97588.91
2023-01-19T20:18:41.240Z,97598.53
2023-01-19T20:24:08.723Z,97608.16
2023-01-19T20:29:36.735Z,97614.28
2023-01-19T20:35:01.738Z,97612.59
2023-01-19T20:40:25.732Z,97617.03
2023-01-19T20:45:53.831Z,97615.34
2023-01-19T20:51:20.719Z,97613.56
2023-01-19T20:56:47.733Z,97618.94
2023-01-19T21:02:20.772Z,97620.63
2023-01-19T21:07:51.905Z,97628.56
2023-01-19T21:13:16.750Z,97632.91
2023-01-19T21:18:44.784Z,97645.19
2023-01-19T21:24:13.928Z,97642.53
2023-01-19T21:29:37.748Z,97647.81
2023-01-19T21:35:05.765Z,97652.38
2023-01-19T21:40:30.772Z,97654.19
2023-01-19T21:45:56.769Z,97656.09
2023-01-19T21:51:23.769Z,97660.63
2023-01-19T21:56:49.737Z,97660.75
2023-01-19T22:02:14.100Z,97656.41
2023-01-19T22:07:41.762Z,97660.97
2023-01-19T22:13:05.796Z,97661.16
2023-01-19T22:18:30.772Z,97670.78
2023-01-19T22:23:58.798Z,97671.75
2023-01-19T22:29:23.759Z,97665.63
2023-01-19T22:34:47.803Z,97673.66
2023-01-19T22:40:16.778Z,97679.06
2023-01-19T22:45:41.852Z,97673.97
2023-01-19T22:51:06.793Z,97681.28
2023-01-19T22:56:36.779Z,97668.69
2023-01-19T23:02:01.895Z,97675.06
2023-01-19T23:07:33.786Z,97669.34
2023-01-19T23:13:01.791Z,97674.19
2023-01-19T23:18:26.804Z,97683.69
2023-01-19T23:23:52.806Z,97689.09
2023-01-19T23:29:23.812Z,97695.34
2023-01-19T23:34:48.766Z,97696.59
2023-01-19T23:40:16.970Z,97695.84
2023-01-19T23:45:44.779Z,97708.25
2023-01-19T23:51:08.810Z,97704.84
2023-01-19T23:56:35.879Z,97709.19
